EGXW/WTN METAR and TAF weather

Enter ICAO airport designator
Station Type Date Time Source
EGXW METAR 2019/10/21 21:50 UTC NOAA

EGXW 212150Z AUTO 30004KT 9999 OVC039/// 09/07 Q1022


Station Type Date Time Source
EGXW Decoded METAR 2019/10/21 21:50 UTC NOAA

Waddington, United Kingdom (EGXW) 53-10N 000-31W 0M
Oct 21, 2019 - 05:50 PM EDT / 2019.10.21 2150 UTC
Wind: from the WNW (300 degrees) at 5 MPH (4 KT):0
Visibility: greater than 7 mile(s):0
Sky conditions: overcast
Temperature: 48 F (9 C)
Dew Point: 44 F (7 C)
Relative Humidity: 87%
Pressure (altimeter): 30.18 in. Hg (1022 hPa)
ob: EGXW 212150Z AUTO 30004KT 9999 OVC039/// 09/07 Q1022
cycle: 22

Station Type Date Time Source
EGXW TAF 2019/10/21 21:42 UTC NOAA

TAF EGXW 211937Z 2121/2215 30006KT 9999 BKN035
BECMG 2122/2201 25005KT PROB40 2200/2208 5000 BR PROB30 2203/2206 3000

Example: see airport list